EST,Max TemperatureF,Mean TemperatureF,Min TemperatureF,Max Dew PointF,MeanDew PointF,Min DewpointF,Max Humidity, Mean Humidity, Min Humidity, Max Sea Level PressureIn, Mean Sea Level PressureIn, Min Sea Level PressureIn, Max VisibilityMiles, Mean VisibilityMiles, Min VisibilityMiles, Max Wind SpeedMPH, Mean Wind SpeedMPH, Max Gust SpeedMPH,PrecipitationIn, CloudCover, Events, WindDirDegrees
2013-12-1,55,42,28,38,31,25,92,68,43,30.32,30.20,30.02,10,10,5,6,0,18,0.00,5,,197
2013-12-2,55,50,45,49,45,38,93,80,66,30.00,29.90,29.83,10,3,0,6,1,8,0.08,8,Fog-Rain,179
2013-12-3,56,52,47,54,51,44,100,86,71,29.89,29.85,29.83,2,1,0,6,1,7,0.01,8,Rain,3
2013-12-4,73,64,54,61,56,52,100,79,57,29.99,29.92,29.87,10,5,2,17,5,24,T,7,,167
2013-12-5,75,69,62,67,64,61,93,83,73,30.02,29.96,29.91,10,8,5,15,7,21,T,7,Rain,174
2013-12-6,70,56,41,66,54,39,93,88,83,30.20,29.99,29.88,10,6,1,20,8,22,1.49,8,Rain-Thunderstorm,315
2013-12-7,43,41,38,40,34,33,92,81,70,30.41,30.35,30.23,10,10,7,20,12,24,T,8,Rain,6
2013-12-8,49,43,37,46,41,34,93,89,85,30.32,30.20,30.11,10,4,1,13,4,21,1.00,8,Rain,137
2013-12-9,55,49,42,48,44,37,93,83,72,30.18,30.12,30.07,10,6,2,13,4,16,0.50,8,Rain,199
2013-12-10,44,37,29,41,33,24,96,73,49,30.40,30.20,30.02,10,9,2,20,7,25,0.37,6,Rain,356
2013-12-11,50,38,26,32,26,23,92,64,36,30.49,30.43,30.38,10,9,6,14,2,17,0.00,3,,335
2013-12-12,44,35,26,25,19,12,78,54,29,30.56,30.49,30.44,10,10,10,17,6,20,0.00,0,,5
2013-12-13,45,34,23,31,24,20,88,64,40,30.45,30.32,30.19,10,10,9,7,1,8,0.00,4,,318
2013-12-14,51,45,39,47,40,30,100,85,70,30.17,29.93,29.82,10,4,1,16,2,21,0.88,8,Rain,358
2013-12-15,46,40,33,37,30,27,85,75,64,30.25,30.12,29.93,10,10,7,18,8,23,T,8,,314
2013-12-16,56,43,29,33,29,26,92,65,38,30.29,30.23,30.15,10,9,6,15,4,17,0.00,4,,181
2013-12-17,62,48,33,35,31,27,82,59,36,30.27,30.16,30.06,10,10,10,20,8,26,0.00,1,,258
2013-12-18,52,41,29,27,23,17,85,56,26,30.39,30.32,30.27,10,10,10,10,2,14,0.00,2,,347
2013-12-19,61,44,27,31,26,22,92,57,22,30.34,30.25,30.17,10,10,10,10,2,14,0.00,5,,179
2013-12-20,63,50,36,51,39,30,82,61,40,30.19,30.14,30.06,10,10,7,13,4,20,T,5,,166
2013-12-21,71,64,56,65,57,51,97,85,72,30.07,29.93,29.83,10,6,1,20,4,29,0.36,8,Rain,158
2013-12-22,71,64,56,65,56,53,93,86,79,30.07,29.94,29.80,10,6,1,24,7,37,1.88,8,Rain-Thunderstorm,189
2013-12-23,56,44,32,54,41,25,93,77,60,30.39,30.20,30.06,10,9,2,17,9,22,0.04,6,Rain,327
2013-12-24,39,34,28,26,20,14,85,61,37,30.52,30.46,30.39,10,10,10,17,7,22,0.00,2,,339
2013-12-25,47,35,22,26,20,14,84,61,37,30.51,30.42,30.35,10,10,10,8,3,12,0.00,1,,163
2013-12-26,52,39,26,30,26,23,85,62,39,30.42,30.37,30.32,10,10,10,8,1,10,0.00,2,Fog,357
2013-12-27,54,40,26,28,24,17,92,58,24,30.50,30.43,30.38,10,10,9,7,0,9,0.00,2,,30
2013-12-28,48,39,29,38,33,25,92,83,73,30.41,30.26,29.99,10,7,1,10,3,14,0.94,7,Rain,29
2013-12-29,50,44,37,42,39,35,100,86,71,30.07,29.97,29.90,10,6,2,10,3,13,0.43,7,Fog-Rain,225
2013-12-30,44,41,38,40,33,28,93,82,70,30.26,30.17,30.07,10,10,10,13,4,15,0.00,8,,16
2013-12-31,43,37,30,31,27,24,85,67,49,30.48,30.37,30.26,10,10,10,13,3,18,0.00,4,,332